sensor_id;sensor_type;location;lat;lon;timestamp;P1;durP1;ratioP1;P2;durP2;ratioP2
36213;SDS011;37652;50.400;30.628;2022-08-01T00:00:47;4.32;;;2.88;;
36213;SDS011;37652;50.400;30.628;2022-08-01T00:02:48;4.28;;;2.60;;
36213;SDS011;37652;50.400;30.628;2022-08-01T00:04:49;4.22;;;2.72;;
36213;SDS011;37652;50.400;30.628;2022-08-01T00:06:49;5.22;;;2.80;;
36213;SDS011;37652;50.400;30.628;2022-08-01T00:08:50;3.42;;;2.35;;
36213;SDS011;37652;50.400;30.628;2022-08-01T00:10:51;3.30;;;3.00;;
36213;SDS011;37652;50.400;30.628;2022-08-01T00:12:52;3.33;;;2.58;;
36213;SDS011;37652;50.400;30.628;2022-08-01T00:14:52;4.32;;;2.75;;
36213;SDS011;37652;50.400;30.628;2022-08-01T00:16:53;3.70;;;2.65;;
36213;SDS011;37652;50.400;30.628;2022-08-01T00:18:53;5.05;;;2.60;;
36213;SDS011;37652;50.400;30.628;2022-08-01T00:20:55;5.75;;;2.40;;
36213;SDS011;37652;50.400;30.628;2022-08-01T00:22:55;3.17;;;2.45;;
36213;SDS011;37652;50.400;30.628;2022-08-01T00:24:56;4.63;;;3.03;;
36213;SDS011;37652;50.400;30.628;2022-08-01T00:26:57;2.78;;;2.58;;
36213;SDS011;37652;50.400;30.628;2022-08-01T00:28:57;6.10;;;2.92;;
36213;SDS011;37652;50.400;30.628;2022-08-01T00:30:58;4.10;;;2.53;;
36213;SDS011;37652;50.400;30.628;2022-08-01T00:32:58;4.10;;;2.35;;
36213;SDS011;37652;50.400;30.628;2022-08-01T00:34:59;7.05;;;2.65;;
36213;SDS011;37652;50.400;30.628;2022-08-01T00:37:00;2.95;;;2.65;;
36213;SDS011;37652;50.400;30.628;2022-08-01T00:39:01;3.33;;;3.03;;
36213;SDS011;37652;50.400;30.628;2022-08-01T00:41:01;4.07;;;2.60;;
36213;SDS011;37652;50.400;30.628;2022-08-01T00:43:02;4.13;;;2.70;;
36213;SDS011;37652;50.400;30.628;2022-08-01T00:45:03;3.72;;;2.35;;
36213;SDS011;37652;50.400;30.628;2022-08-01T00:47:04;3.75;;;3.35;;
36213;SDS011;37652;50.400;30.628;2022-08-01T00:49:06;5.55;;;2.50;;
36213;SDS011;37652;50.400;30.628;2022-08-01T00:51:06;3.35;;;2.90;;
36213;SDS011;37652;50.400;30.628;2022-08-01T00:53:08;3.33;;;3.00;;
36213;SDS011;37652;50.400;30.628;2022-08-01T00:55:09;8.20;;;3.38;;
36213;SDS011;37652;50.400;30.628;2022-08-01T00:57:12;4.60;;;3.10;;
36213;SDS011;37652;50.400;30.628;2022-08-01T00:59:13;4.80;;;3.13;;
36213;SDS011;37652;50.400;30.628;2022-08-01T01:01:16;9.07;;;2.97;;
36213;SDS011;37652;50.400;30.628;2022-08-01T01:03:18;3.75;;;2.92;;
36213;SDS011;37652;50.400;30.628;2022-08-01T01:05:18;7.57;;;2.95;;
36213;SDS011;37652;50.400;30.628;2022-08-01T01:07:42;5.72;;;3.17;;
36213;SDS011;37652;50.400;30.628;2022-08-01T01:09:44;5.50;;;2.65;;
36213;SDS011;37652;50.400;30.628;2022-08-01T01:14:26;4.38;;;3.10;;
36213;SDS011;37652;50.400;30.628;2022-08-01T01:16:36;8.20;;;2.95;;
36213;SDS011;37652;50.400;30.628;2022-08-01T01:18:47;4.32;;;3.10;;
36213;SDS011;37652;50.400;30.628;2022-08-01T01:30:17;6.07;;;3.40;;
36213;SDS011;37652;50.400;30.628;2022-08-01T01:36:52;7.88;;;3.88;;
36213;SDS011;37652;50.400;30.628;2022-08-01T01:38:55;6.22;;;3.30;;
36213;SDS011;37652;50.400;30.628;2022-08-01T01:40:56;8.68;;;3.55;;
36213;SDS011;37652;50.400;30.628;2022-08-01T01:42:58;8.82;;;3.83;;
36213;SDS011;37652;50.400;30.628;2022-08-01T01:45:00;3.63;;;3.17;;
36213;SDS011;37652;50.400;30.628;2022-08-01T01:47:04;4.55;;;3.30;;
36213;SDS011;37652;50.400;30.628;2022-08-01T01:49:06;4.70;;;3.88;;
36213;SDS011;37652;50.400;30.628;2022-08-01T01:51:10;5.43;;;3.05;;
36213;SDS011;37652;50.400;30.628;2022-08-01T01:53:16;5.85;;;3.55;;
36213;SDS011;37652;50.400;30.628;2022-08-01T01:55:20;4.13;;;3.47;;
36213;SDS011;37652;50.400;30.628;2022-08-01T01:57:23;4.03;;;3.33;;
36213;SDS011;37652;50.400;30.628;2022-08-01T02:01:27;4.80;;;3.45;;
36213;SDS011;37652;50.400;30.628;2022-08-01T02:03:31;4.95;;;3.45;;
36213;SDS011;37652;50.400;30.628;2022-08-01T02:05:32;4.57;;;3.60;;
36213;SDS011;37652;50.400;30.628;2022-08-01T02:07:35;5.70;;;3.38;;
36213;SDS011;37652;50.400;30.628;2022-08-01T02:09:37;5.93;;;3.33;;
36213;SDS011;37652;50.400;30.628;2022-08-01T02:11:40;4.45;;;3.40;;
36213;SDS011;37652;50.400;30.628;2022-08-01T02:13:41;5.03;;;3.95;;
36213;SDS011;37652;50.400;30.628;2022-08-01T02:15:43;5.35;;;3.20;;
36213;SDS011;37652;50.400;30.628;2022-08-01T02:17:46;3.90;;;3.47;;
36213;SDS011;37652;50.400;30.628;2022-08-01T02:19:49;5.65;;;3.30;;
36213;SDS011;37652;50.400;30.628;2022-08-01T02:21:51;4.43;;;3.05;;
36213;SDS011;37652;50.400;30.628;2022-08-01T02:23:57;4.85;;;2.80;;
36213;SDS011;37652;50.400;30.628;2022-08-01T02:26:03;6.80;;;3.20;;
36213;SDS011;37652;50.400;30.628;2022-08-01T02:28:10;6.45;;;3.10;;
36213;SDS011;37652;50.400;30.628;2022-08-01T02:30:19;4.60;;;2.93;;
36213;SDS011;37652;50.400;30.628;2022-08-01T02:32:24;4.05;;;2.65;;
36213;SDS011;37652;50.400;30.628;2022-08-01T02:34:30;4.18;;;2.58;;
36213;SDS011;37652;50.400;30.628;2022-08-01T02:36:33;6.10;;;3.17;;
36213;SDS011;37652;50.400;30.628;2022-08-01T02:38:40;6.63;;;2.78;;
36213;SDS011;37652;50.400;30.628;2022-08-01T02:40:43;4.88;;;2.80;;
36213;SDS011;37652;50.400;30.628;2022-08-01T02:42:48;4.03;;;3.00;;
36213;SDS011;37652;50.400;30.628;2022-08-01T02:44:50;6.60;;;3.15;;
36213;SDS011;37652;50.400;30.628;2022-08-01T02:47:00;5.07;;;3.42;;
36213;SDS011;37652;50.400;30.628;2022-08-01T02:49:02;3.35;;;2.95;;
36213;SDS011;37652;50.400;30.628;2022-08-01T02:51:06;5.45;;;3.13;;
36213;SDS011;37652;50.400;30.628;2022-08-01T02:53:09;4.43;;;3.28;;
36213;SDS011;37652;50.400;30.628;2022-08-01T02:55:12;3.47;;;3.17;;
36213;SDS011;37652;50.400;30.628;2022-08-01T02:57:14;4.28;;;3.00;;
36213;SDS011;37652;50.400;30.628;2022-08-01T02:59:18;3.20;;;2.80;;
36213;SDS011;37652;50.400;30.628;2022-08-01T03:01:24;4.30;;;2.83;;
36213;SDS011;37652;50.400;30.628;2022-08-01T03:03:25;4.68;;;2.92;;
36213;SDS011;37652;50.400;30.628;2022-08-01T03:05:26;8.07;;;3.30;;
36213;SDS011;37652;50.400;30.628;2022-08-01T03:07:27;4.65;;;2.70;;
36213;SDS011;37652;50.400;30.628;2022-08-01T03:09:30;3.90;;;3.33;;
36213;SDS011;37652;50.400;30.628;2022-08-01T03:11:34;2.97;;;2.67;;
36213;SDS011;37652;50.400;30.628;2022-08-01T03:13:37;4.97;;;2.97;;
36213;SDS011;37652;50.400;30.628;2022-08-01T03:15:41;3.92;;;3.53;;
36213;SDS011;37652;50.400;30.628;2022-08-01T03:17:44;9.20;;;3.95;;
36213;SDS011;37652;50.400;30.628;2022-08-01T03:19:46;7.15;;;3.28;;
36213;SDS011;37652;50.400;30.628;2022-08-01T03:21:49;5.53;;;3.05;;
36213;SDS011;37652;50.400;30.628;2022-08-01T03:23:52;7.68;;;3.13;;
36213;SDS011;37652;50.400;30.628;2022-08-01T03:25:57;4.65;;;2.65;;
36213;SDS011;37652;50.400;30.628;2022-08-01T03:27:59;7.28;;;2.85;;
36213;SDS011;37652;50.400;30.628;2022-08-01T03:30:04;4.88;;;2.80;;
36213;SDS011;37652;50.400;30.628;2022-08-01T03:32:06;7.97;;;3.13;;
36213;SDS011;37652;50.400;30.628;2022-08-01T03:34:08;6.05;;;2.58;;
36213;SDS011;37652;50.400;30.628;2022-08-01T03:36:09;4.47;;;2.50;;
36213;SDS011;37652;50.400;30.628;2022-08-01T03:38:12;3.47;;;2.65;;
36213;SDS011;37652;50.400;30.628;2022-08-01T03:42:33;5.72;;;2.35;;
36213;SDS011;37652;50.400;30.628;2022-08-01T03:44:36;3.25;;;2.65;;
36213;SDS011;37652;50.400;30.628;2022-08-01T03:46:42;3.38;;;2.70;;
36213;SDS011;37652;50.400;30.628;2022-08-01T03:48:48;4.78;;;2.83;;
36213;SDS011;37652;50.400;30.628;2022-08-01T03:50:51;7.05;;;2.30;;
36213;SDS011;37652;50.400;30.628;2022-08-01T03:52:52;10.05;;;2.50;;
36213;SDS011;37652;50.400;30.628;2022-08-01T03:54:58;8.43;;;2.97;;
36213;SDS011;37652;50.400;30.628;2022-08-01T03:57:07;4.72;;;2.58;;
36213;SDS011;37652;50.400;30.628;2022-08-01T03:59:10;3.28;;;2.55;;
36213;SDS011;37652;50.400;30.628;2022-08-01T04:01:10;2.95;;;2.40;;
36213;SDS011;37652;50.400;30.628;2022-08-01T04:03:12;5.72;;;2.17;;
36213;SDS011;37652;50.400;30.628;2022-08-01T04:05:14;4.20;;;2.72;;
36213;SDS011;37652;50.400;30.628;2022-08-01T04:07:20;4.88;;;2.30;;
36213;SDS011;37652;50.400;30.628;2022-08-01T04:09:28;4.25;;;2.38;;
36213;SDS011;37652;50.400;30.628;2022-08-01T04:11:30;3.90;;;2.83;;
36213;SDS011;37652;50.400;30.628;2022-08-01T04:13:31;6.90;;;2.83;;
36213;SDS011;37652;50.400;30.628;2022-08-01T04:15:32;2.90;;;2.50;;
36213;SDS011;37652;50.400;30.628;2022-08-01T04:17:33;2.40;;;2.20;;
36213;SDS011;37652;50.400;30.628;2022-08-01T04:19:34;3.70;;;2.20;;
36213;SDS011;37652;50.400;30.628;2022-08-01T04:21:35;4.68;;;1.95;;
36213;SDS011;37652;50.400;30.628;2022-08-01T04:23:36;2.60;;;2.25;;
36213;SDS011;37652;50.400;30.628;2022-08-01T04:25:39;3.65;;;2.50;;
36213;SDS011;37652;50.400;30.628;2022-08-01T04:27:43;5.80;;;2.55;;
36213;SDS011;37652;50.400;30.628;2022-08-01T04:29:47;4.20;;;2.38;;
36213;SDS011;37652;50.400;30.628;2022-08-01T04:31:52;2.50;;;2.30;;
36213;SDS011;37652;50.400;30.628;2022-08-01T04:33:54;5.22;;;2.60;;
36213;SDS011;37652;50.400;30.628;2022-08-01T04:35:57;5.07;;;2.20;;
36213;SDS011;37652;50.400;30.628;2022-08-01T04:37:59;3.55;;;2.40;;
36213;SDS011;37652;50.400;30.628;2022-08-01T04:40:01;3.53;;;2.10;;
36213;SDS011;37652;50.400;30.628;2022-08-01T04:42:06;4.75;;;2.35;;
36213;SDS011;37652;50.400;30.628;2022-08-01T04:44:08;4.95;;;2.05;;
36213;SDS011;37652;50.400;30.628;2022-08-01T04:46:08;5.53;;;2.08;;
36213;SDS011;37652;50.400;30.628;2022-08-01T04:48:11;4.00;;;2.38;;
36213;SDS011;37652;50.400;30.628;2022-08-01T04:50:15;4.35;;;2.40;;
36213;SDS011;37652;50.400;30.628;2022-08-01T04:52:16;5.85;;;2.20;;
36213;SDS011;37652;50.400;30.628;2022-08-01T04:54:18;2.25;;;2.05;;
36213;SDS011;37652;50.400;30.628;2022-08-01T04:58:20;4.35;;;2.25;;
36213;SDS011;37652;50.400;30.628;2022-08-01T05:02:22;6.37;;;2.27;;
36213;SDS011;37652;50.400;30.628;2022-08-01T05:06:23;2.60;;;2.40;;
36213;SDS011;37652;50.400;30.628;2022-08-01T05:08:24;4.40;;;2.33;;
36213;SDS011;37652;50.400;30.628;2022-08-01T05:12:26;2.50;;;2.30;;
36213;SDS011;37652;50.400;30.628;2022-08-01T05:16:28;3.88;;;2.50;;
36213;SDS011;37652;50.400;30.628;2022-08-01T05:20:30;5.93;;;2.30;;
36213;SDS011;37652;50.400;30.628;2022-08-01T05:22:31;4.43;;;2.40;;
36213;SDS011;37652;50.400;30.628;2022-08-01T05:26:33;4.43;;;2.42;;
36213;SDS011;37652;50.400;30.628;2022-08-01T05:30:35;3.25;;;2.50;;
36213;SDS011;37652;50.400;30.628;2022-08-01T05:34:36;4.70;;;2.70;;
36213;SDS011;37652;50.400;30.628;2022-08-01T05:36:37;3.28;;;2.13;;
36213;SDS011;37652;50.400;30.628;2022-08-01T05:38:38;10.27;;;2.40;;
36213;SDS011;37652;50.400;30.628;2022-08-01T05:42:39;3.90;;;2.53;;
36213;SDS011;37652;50.400;30.628;2022-08-01T05:46:40;6.20;;;2.67;;
36213;SDS011;37652;50.400;30.628;2022-08-01T05:50:42;2.95;;;2.40;;
36213;SDS011;37652;50.400;30.628;2022-08-01T05:54:43;5.97;;;2.50;;
36213;SDS011;37652;50.400;30.628;2022-08-01T05:58:44;7.65;;;2.85;;
36213;SDS011;37652;50.400;30.628;2022-08-01T06:00:46;5.65;;;2.17;;
36213;SDS011;37652;50.400;30.628;2022-08-01T06:04:47;7.23;;;2.97;;
36213;SDS011;37652;50.400;30.628;2022-08-01T06:08:49;3.53;;;2.50;;
36213;SDS011;37652;50.400;30.628;2022-08-01T06:10:50;2.53;;;2.33;;
36213;SDS011;37652;50.400;30.628;2022-08-01T06:14:51;3.03;;;2.77;;
36213;SDS011;37652;50.400;30.628;2022-08-01T06:18:52;6.13;;;2.83;;
36213;SDS011;37652;50.400;30.628;2022-08-01T06:22:53;5.97;;;2.50;;
36213;SDS011;37652;50.400;30.628;2022-08-01T06:26:55;4.85;;;2.38;;
36213;SDS011;37652;50.400;30.628;2022-08-01T06:28:56;4.75;;;2.28;;
36213;SDS011;37652;50.400;30.628;2022-08-01T06:30:57;4.40;;;1.90;;
36213;SDS011;37652;50.400;30.628;2022-08-01T06:32:59;4.13;;;2.78;;
36213;SDS011;37652;50.400;30.628;2022-08-01T06:35:00;3.63;;;2.20;;
36213;SDS011;37652;50.400;30.628;2022-08-01T06:37:00;4.95;;;2.10;;
36213;SDS011;37652;50.400;30.628;2022-08-01T06:39:01;6.45;;;2.20;;
36213;SDS011;37652;50.400;30.628;2022-08-01T06:41:02;4.47;;;1.95;;
36213;SDS011;37652;50.400;30.628;2022-08-01T06:43:03;3.00;;;2.38;;
36213;SDS011;37652;50.400;30.628;2022-08-01T06:45:05;2.80;;;2.10;;
36213;SDS011;37652;50.400;30.628;2022-08-01T06:47:06;4.03;;;2.58;;
36213;SDS011;37652;50.400;30.628;2022-08-01T06:49:07;5.00;;;2.38;;
36213;SDS011;37652;50.400;30.628;2022-08-01T06:51:08;2.13;;;1.88;;
36213;SDS011;37652;50.400;30.628;2022-08-01T06:53:09;6.15;;;2.15;;
36213;SDS011;37652;50.400;30.628;2022-08-01T06:55:10;5.90;;;2.13;;
36213;SDS011;37652;50.400;30.628;2022-08-01T06:57:11;2.97;;;2.00;;
36213;SDS011;37652;50.400;30.628;2022-08-01T06:59:12;4.32;;;2.40;;
36213;SDS011;37652;50.400;30.628;2022-08-01T07:01:13;3.88;;;2.10;;
36213;SDS011;37652;50.400;30.628;2022-08-01T07:03:14;4.57;;;1.80;;
36213;SDS011;37652;50.400;30.628;2022-08-01T07:05:14;2.83;;;1.95;;
36213;SDS011;37652;50.400;30.628;2022-08-01T07:07:15;2.30;;;1.83;;
36213;SDS011;37652;50.400;30.628;2022-08-01T07:09:16;4.22;;;2.40;;
36213;SDS011;37652;50.400;30.628;2022-08-01T07:11:17;6.22;;;1.95;;
36213;SDS011;37652;50.400;30.628;2022-08-01T07:13:18;5.18;;;2.10;;
36213;SDS011;37652;50.400;30.628;2022-08-01T07:15:21;6.90;;;2.35;;
36213;SDS011;37652;50.400;30.628;2022-08-01T07:17:26;2.72;;;2.17;;
36213;SDS011;37652;50.400;30.628;2022-08-01T07:19:27;2.30;;;2.10;;
36213;SDS011;37652;50.400;30.628;2022-08-01T07:21:27;6.63;;;1.98;;
36213;SDS011;37652;50.400;30.628;2022-08-01T07:23:28;2.60;;;1.95;;
36213;SDS011;37652;50.400;30.628;2022-08-01T07:25:30;4.28;;;2.38;;
36213;SDS011;37652;50.400;30.628;2022-08-01T07:27:31;3.28;;;1.95;;
36213;SDS011;37652;50.400;30.628;2022-08-01T07:29:32;3.17;;;2.85;;
36213;SDS011;37652;50.400;30.628;2022-08-01T07:31:33;2.35;;;1.63;;
36213;SDS011;37652;50.400;30.628;2022-08-01T07:33:34;4.30;;;2.30;;
36213;SDS011;37652;50.400;30.628;2022-08-01T07:35:35;3.25;;;2.10;;
36213;SDS011;37652;50.400;30.628;2022-08-01T07:37:39;4.78;;;2.25;;
36213;SDS011;37652;50.400;30.628;2022-08-01T07:39:40;4.30;;;1.90;;
36213;SDS011;37652;50.400;30.628;2022-08-01T07:41:41;7.30;;;2.75;;
36213;SDS011;37652;50.400;30.628;2022-08-01T07:43:42;3.92;;;2.55;;
36213;SDS011;37652;50.400;30.628;2022-08-01T07:45:43;4.25;;;2.28;;
36213;SDS011;37652;50.400;30.628;2022-08-01T07:47:44;4.90;;;2.40;;
36213;SDS011;37652;50.400;30.628;2022-08-01T07:49:46;5.97;;;2.45;;
36213;SDS011;37652;50.400;30.628;2022-08-01T07:51:47;3.50;;;2.50;;
36213;SDS011;37652;50.400;30.628;2022-08-01T07:53:48;4.90;;;2.70;;
36213;SDS011;37652;50.400;30.628;2022-08-01T07:55:49;2.63;;;2.35;;
36213;SDS011;37652;50.400;30.628;2022-08-01T07:57:50;3.70;;;2.58;;
36213;SDS011;37652;50.400;30.628;2022-08-01T07:59:50;2.55;;;2.30;;
36213;SDS011;37652;50.400;30.628;2022-08-01T08:01:51;3.53;;;2.55;;
36213;SDS011;37652;50.400;30.628;2022-08-01T08:03:53;5.32;;;2.40;;
36213;SDS011;37652;50.400;30.628;2022-08-01T08:05:53;4.88;;;2.40;;
36213;SDS011;37652;50.400;30.628;2022-08-01T08:07:54;3.20;;;2.60;;
36213;SDS011;37652;50.400;30.628;2022-08-01T08:09:55;5.10;;;3.10;;
36213;SDS011;37652;50.400;30.628;2022-08-01T08:11:56;5.78;;;2.80;;
36213;SDS011;37652;50.400;30.628;2022-08-01T08:13:57;7.70;;;3.00;;
36213;SDS011;37652;50.400;30.628;2022-08-01T08:15:58;5.43;;;2.30;;
36213;SDS011;37652;50.400;30.628;2022-08-01T08:17:59;6.25;;;2.70;;
36213;SDS011;37652;50.400;30.628;2022-08-01T08:20:01;6.25;;;2.40;;
36213;SDS011;37652;50.400;30.628;2022-08-01T08:22:03;2.95;;;2.58;;
36213;SDS011;37652;50.400;30.628;2022-08-01T08:24:04;3.72;;;3.30;;
36213;SDS011;37652;50.400;30.628;2022-08-01T08:26:20;4.22;;;2.95;;
36213;SDS011;37652;50.400;30.628;2022-08-01T08:28:23;6.03;;;3.28;;
36213;SDS011;37652;50.400;30.628;2022-08-01T08:30:24;4.50;;;3.30;;
36213;SDS011;37652;50.400;30.628;2022-08-01T08:32:25;5.85;;;2.83;;
36213;SDS011;37652;50.400;30.628;2022-08-01T08:34:27;7.47;;;3.00;;
36213;SDS011;37652;50.400;30.628;2022-08-01T08:36:28;6.13;;;2.70;;
36213;SDS011;37652;50.400;30.628;2022-08-01T08:38:29;4.45;;;3.33;;
36213;SDS011;37652;50.400;30.628;2022-08-01T08:40:30;4.13;;;2.50;;
36213;SDS011;37652;50.400;30.628;2022-08-01T08:42:34;4.70;;;2.60;;
36213;SDS011;37652;50.400;30.628;2022-08-01T08:44:35;4.53;;;3.05;;
36213;SDS011;37652;50.400;30.628;2022-08-01T08:46:45;3.00;;;2.28;;
36213;SDS011;37652;50.400;30.628;2022-08-01T08:48:53;4.30;;;3.00;;
36213;SDS011;37652;50.400;30.628;2022-08-01T08:50:55;5.70;;;3.75;;
36213;SDS011;37652;50.400;30.628;2022-08-01T08:52:58;3.10;;;2.80;;
36213;SDS011;37652;50.400;30.628;2022-08-01T08:55:01;3.33;;;3.00;;
36213;SDS011;37652;50.400;30.628;2022-08-01T08:57:02;4.05;;;2.90;;
36213;SDS011;37652;50.400;30.628;2022-08-01T08:59:03;3.35;;;2.80;;
36213;SDS011;37652;50.400;30.628;2022-08-01T09:01:05;4.30;;;2.80;;
36213;SDS011;37652;50.400;30.628;2022-08-01T09:03:07;2.88;;;2.67;;
36213;SDS011;37652;50.400;30.628;2022-08-01T09:05:08;5.85;;;2.90;;
36213;SDS011;37652;50.400;30.628;2022-08-01T09:07:09;6.30;;;2.78;;
36213;SDS011;37652;50.400;30.628;2022-08-01T09:09:11;5.07;;;2.95;;
36213;SDS011;37652;50.400;30.628;2022-08-01T09:11:12;4.43;;;3.10;;
36213;SDS011;37652;50.400;30.628;2022-08-01T09:13:14;2.95;;;2.55;;
36213;SDS011;37652;50.400;30.628;2022-08-01T09:15:14;4.00;;;2.67;;
36213;SDS011;37652;50.400;30.628;2022-08-01T09:17:15;10.02;;;3.58;;
36213;SDS011;37652;50.400;30.628;2022-08-01T09:19:18;4.72;;;2.50;;
36213;SDS011;37652;50.400;30.628;2022-08-01T09:21:20;8.70;;;2.85;;
36213;SDS011;37652;50.400;30.628;2022-08-01T09:25:49;4.20;;;2.80;;
36213;SDS011;37652;50.400;30.628;2022-08-01T09:28:01;4.03;;;2.58;;
36213;SDS011;37652;50.400;30.628;2022-08-01T09:30:09;5.88;;;3.20;;
36213;SDS011;37652;50.400;30.628;2022-08-01T09:32:14;3.53;;;3.22;;
36213;SDS011;37652;50.400;30.628;2022-08-01T09:34:16;6.03;;;2.95;;
36213;SDS011;37652;50.400;30.628;2022-08-01T09:36:27;6.28;;;3.00;;
36213;SDS011;37652;50.400;30.628;2022-08-01T09:38:51;3.83;;;2.80;;
36213;SDS011;37652;50.400;30.628;2022-08-01T09:40:54;7.53;;;2.65;;
36213;SDS011;37652;50.400;30.628;2022-08-01T09:43:09;3.25;;;2.90;;
36213;SDS011;37652;50.400;30.628;2022-08-01T09:45:30;6.72;;;3.00;;
36213;SDS011;37652;50.400;30.628;2022-08-01T09:47:39;4.30;;;2.95;;
36213;SDS011;37652;50.400;30.628;2022-08-01T09:49:40;8.93;;;2.83;;
36213;SDS011;37652;50.400;30.628;2022-08-01T09:51:42;11.25;;;4.20;;
36213;SDS011;37652;50.400;30.628;2022-08-01T09:53:47;5.53;;;3.05;;
36213;SDS011;37652;50.400;30.628;2022-08-01T09:55:48;7.05;;;3.05;;
36213;SDS011;37652;50.400;30.628;2022-08-01T09:57:55;4.03;;;2.90;;
36213;SDS011;37652;50.400;30.628;2022-08-01T09:59:57;5.53;;;3.33;;
36213;SDS011;37652;50.400;30.628;2022-08-01T10:01:59;5.25;;;2.92;;
36213;SDS011;37652;50.400;30.628;2022-08-01T10:04:33;10.02;;;3.28;;
36213;SDS011;37652;50.400;30.628;2022-08-01T10:06:27;5.15;;;3.30;;
36213;SDS011;37652;50.400;30.628;2022-08-01T10:08:28;5.40;;;3.10;;
36213;SDS011;37652;50.400;30.628;2022-08-01T10:11:04;7.05;;;3.63;;
36213;SDS011;37652;50.400;30.628;2022-08-01T10:13:08;5.30;;;3.45;;
36213;SDS011;37652;50.400;30.628;2022-08-01T10:15:09;3.63;;;3.33;;
36213;SDS011;37652;50.400;30.628;2022-08-01T10:17:12;10.30;;;3.92;;
36213;SDS011;37652;50.400;30.628;2022-08-01T10:19:14;6.15;;;3.00;;
36213;SDS011;37652;50.400;30.628;2022-08-01T10:21:14;4.20;;;2.88;;
36213;SDS011;37652;50.400;30.628;2022-08-01T10:23:16;5.38;;;3.40;;
36213;SDS011;37652;50.400;30.628;2022-08-01T10:25:17;3.60;;;3.30;;
36213;SDS011;37652;50.400;30.628;2022-08-01T10:27:18;4.60;;;3.20;;
36213;SDS011;37652;50.400;30.628;2022-08-01T10:29:20;3.38;;;2.83;;
36213;SDS011;37652;50.400;30.628;2022-08-01T10:31:22;10.40;;;3.30;;
36213;SDS011;37652;50.400;30.628;2022-08-01T10:33:24;8.80;;;2.97;;
36213;SDS011;37652;50.400;30.628;2022-08-01T10:35:25;5.95;;;2.88;;
36213;SDS011;37652;50.400;30.628;2022-08-01T10:37:26;3.42;;;3.10;;
36213;SDS011;37652;50.400;30.628;2022-08-01T10:39:27;5.22;;;2.92;;
36213;SDS011;37652;50.400;30.628;2022-08-01T10:41:30;4.65;;;3.08;;
36213;SDS011;37652;50.400;30.628;2022-08-01T10:43:33;4.07;;;3.03;;
36213;SDS011;37652;50.400;30.628;2022-08-01T10:45:34;8.65;;;3.70;;
36213;SDS011;37652;50.400;30.628;2022-08-01T10:47:40;3.25;;;3.03;;
36213;SDS011;37652;50.400;30.628;2022-08-01T10:49:56;4.57;;;3.20;;
36213;SDS011;37652;50.400;30.628;2022-08-01T10:51:58;4.25;;;3.15;;
36213;SDS011;37652;50.400;30.628;2022-08-01T10:53:59;6.90;;;3.35;;
36213;SDS011;37652;50.400;30.628;2022-08-01T10:56:06;9.15;;;3.70;;
36213;SDS011;37652;50.400;30.628;2022-08-01T10:58:09;4.10;;;3.70;;
36213;SDS011;37652;50.400;30.628;2022-08-01T11:00:18;7.18;;;3.78;;
36213;SDS011;37652;50.400;30.628;2022-08-01T11:02:27;9.85;;;3.85;;
36213;SDS011;37652;50.400;30.628;2022-08-01T11:04:51;5.05;;;3.22;;
36213;SDS011;37652;50.400;30.628;2022-08-01T11:07:05;6.18;;;3.25;;
36213;SDS011;37652;50.400;30.628;2022-08-01T11:11:14;4.32;;;3.95;;
36213;SDS011;37652;50.400;30.628;2022-08-01T11:13:14;3.58;;;3.28;;
36213;SDS011;37652;50.400;30.628;2022-08-01T11:15:53;3.97;;;3.55;;
36213;SDS011;37652;50.400;30.628;2022-08-01T11:18:31;4.28;;;3.10;;
36213;SDS011;37652;50.400;30.628;2022-08-01T11:20:33;5.65;;;3.70;;
36213;SDS011;37652;50.400;30.628;2022-08-01T11:25:15;4.15;;;3.50;;
36213;SDS011;37652;50.400;30.628;2022-08-01T11:27:17;5.63;;;3.90;;
36213;SDS011;37652;50.400;30.628;2022-08-01T11:29:21;7.22;;;4.10;;
36213;SDS011;37652;50.400;30.628;2022-08-01T11:38:27;5.50;;;4.32;;
36213;SDS011;37652;50.400;30.628;2022-08-01T11:40:29;5.28;;;4.43;;
36213;SDS011;37652;50.400;30.628;2022-08-01T11:42:30;5.78;;;4.47;;
36213;SDS011;37652;50.400;30.628;2022-08-01T11:44:31;8.25;;;4.53;;
36213;SDS011;37652;50.400;30.628;2022-08-01T11:46:50;5.05;;;4.10;;
36213;SDS011;37652;50.400;30.628;2022-08-01T11:51:25;5.55;;;4.30;;
36213;SDS011;37652;50.400;30.628;2022-08-01T11:53:27;4.15;;;3.85;;
36213;SDS011;37652;50.400;30.628;2022-08-01T11:55:28;6.38;;;4.40;;
36213;SDS011;37652;50.400;30.628;2022-08-01T11:57:30;6.72;;;4.45;;
36213;SDS011;37652;50.400;30.628;2022-08-01T11:59:35;5.20;;;4.40;;
36213;SDS011;37652;50.400;30.628;2022-08-01T12:01:40;5.63;;;4.10;;
36213;SDS011;37652;50.400;30.628;2022-08-01T12:03:41;5.40;;;4.38;;
36213;SDS011;37652;50.400;30.628;2022-08-01T12:05:43;5.10;;;4.20;;
36213;SDS011;37652;50.400;30.628;2022-08-01T12:07:44;4.07;;;3.78;;
36213;SDS011;37652;50.400;30.628;2022-08-01T12:09:46;6.22;;;3.90;;
36213;SDS011;37652;50.400;30.628;2022-08-01T12:11:47;6.82;;;4.13;;
36213;SDS011;37652;50.400;30.628;2022-08-01T12:13:49;6.40;;;4.28;;
36213;SDS011;37652;50.400;30.628;2022-08-01T12:15:52;4.88;;;4.20;;
36213;SDS011;37652;50.400;30.628;2022-08-01T12:17:57;4.55;;;4.25;;
36213;SDS011;37652;50.400;30.628;2022-08-01T12:19:59;8.35;;;3.90;;
36213;SDS011;37652;50.400;30.628;2022-08-01T12:22:07;5.53;;;4.28;;
36213;SDS011;37652;50.400;30.628;2022-08-01T12:24:13;5.88;;;3.95;;
36213;SDS011;37652;50.400;30.628;2022-08-01T12:26:22;3.97;;;3.53;;
36213;SDS011;37652;50.400;30.628;2022-08-01T12:28:22;6.25;;;3.28;;
36213;SDS011;37652;50.400;30.628;2022-08-01T12:30:24;3.78;;;3.33;;
36213;SDS011;37652;50.400;30.628;2022-08-01T12:32:31;6.43;;;3.63;;
36213;SDS011;37652;50.400;30.628;2022-08-01T12:34:35;6.95;;;3.50;;
36213;SDS011;37652;50.400;30.628;2022-08-01T12:36:36;5.25;;;3.05;;
36213;SDS011;37652;50.400;30.628;2022-08-01T12:38:38;3.67;;;3.38;;
36213;SDS011;37652;50.400;30.628;2022-08-01T12:40:43;6.45;;;3.30;;
36213;SDS011;37652;50.400;30.628;2022-08-01T12:42:47;4.13;;;3.83;;
36213;SDS011;37652;50.400;30.628;2022-08-01T12:44:50;6.07;;;3.53;;
36213;SDS011;37652;50.400;30.628;2022-08-01T12:46:52;5.75;;;3.95;;
36213;SDS011;37652;50.400;30.628;2022-08-01T12:48:53;6.13;;;4.20;;
36213;SDS011;37652;50.400;30.628;2022-08-01T12:50:54;5.72;;;4.22;;
36213;SDS011;37652;50.400;30.628;2022-08-01T12:52:57;4.28;;;3.80;;
36213;SDS011;37652;50.400;30.628;2022-08-01T12:57:02;4.00;;;3.70;;
36213;SDS011;37652;50.400;30.628;2022-08-01T12:59:18;4.13;;;3.47;;
36213;SDS011;37652;50.400;30.628;2022-08-01T13:01:29;4.13;;;3.42;;
36213;SDS011;37652;50.400;30.628;2022-08-01T13:03:30;5.07;;;4.28;;
36213;SDS011;37652;50.400;30.628;2022-08-01T13:08:01;5.18;;;3.58;;
36213;SDS011;37652;50.400;30.628;2022-08-01T13:10:14;6.18;;;3.10;;
36213;SDS011;37652;50.400;30.628;2022-08-01T13:12:24;9.13;;;4.32;;
36213;SDS011;37652;50.400;30.628;2022-08-01T13:14:28;8.77;;;4.05;;
36213;SDS011;37652;50.400;30.628;2022-08-01T13:16:29;6.60;;;3.10;;
36213;SDS011;37652;50.400;30.628;2022-08-01T13:18:31;8.25;;;3.40;;
36213;SDS011;37652;50.400;30.628;2022-08-01T13:20:33;6.43;;;3.35;;
36213;SDS011;37652;50.400;30.628;2022-08-01T13:22:35;3.53;;;2.92;;
36213;SDS011;37652;50.400;30.628;2022-08-01T13:24:37;3.75;;;3.10;;
36213;SDS011;37652;50.400;30.628;2022-08-01T13:26:47;5.22;;;2.88;;
36213;SDS011;37652;50.400;30.628;2022-08-01T13:29:06;4.95;;;3.10;;
36213;SDS011;37652;50.400;30.628;2022-08-01T13:31:09;8.43;;;3.38;;
36213;SDS011;37652;50.400;30.628;2022-08-01T13:33:10;9.07;;;2.83;;